sensor_id;sensor_type;location;lat;lon;timestamp;temperature;humidity
12841;DHT22;6487;48.626;12.486;2024-03-08T00:00:41;2.60;99.90
12841;DHT22;6487;48.626;12.486;2024-03-08T00:03:09;2.60;99.90
12841;DHT22;6487;48.626;12.486;2024-03-08T00:05:38;2.60;99.90
12841;DHT22;6487;48.626;12.486;2024-03-08T00:08:09;2.60;99.90
12841;DHT22;6487;48.626;12.486;2024-03-08T00:10:38;2.60;99.90
12841;DHT22;6487;48.626;12.486;2024-03-08T00:13:07;2.60;99.90
12841;DHT22;6487;48.626;12.486;2024-03-08T00:15:36;2.50;99.90
12841;DHT22;6487;48.626;12.486;2024-03-08T00:18:04;2.60;99.90
12841;DHT22;6487;48.626;12.486;2024-03-08T00:20:33;2.60;99.90
12841;DHT22;6487;48.626;12.486;2024-03-08T00:23:02;2.50;99.90
12841;DHT22;6487;48.626;12.486;2024-03-08T00:25:33;2.50;99.90
12841;DHT22;6487;48.626;12.486;2024-03-08T00:28:03;2.50;99.90
12841;DHT22;6487;48.626;12.486;2024-03-08T00:30:32;2.50;99.90
12841;DHT22;6487;48.626;12.486;2024-03-08T00:33:01;2.50;99.90
12841;DHT22;6487;48.626;12.486;2024-03-08T00:35:30;2.50;99.90
12841;DHT22;6487;48.626;12.486;2024-03-08T00:37:58;2.50;99.90
12841;DHT22;6487;48.626;12.486;2024-03-08T00:40:27;2.50;99.90
12841;DHT22;6487;48.626;12.486;2024-03-08T00:42:57;2.50;99.90
12841;DHT22;6487;48.626;12.486;2024-03-08T00:45:24;2.50;99.90
12841;DHT22;6487;48.626;12.486;2024-03-08T00:47:53;2.50;99.90
12841;DHT22;6487;48.626;12.486;2024-03-08T00:50:22;2.40;99.90
12841;DHT22;6487;48.626;12.486;2024-03-08T00:52:50;2.50;99.90
12841;DHT22;6487;48.626;12.486;2024-03-08T00:55:19;2.40;99.90
12841;DHT22;6487;48.626;12.486;2024-03-08T00:57:47;2.40;99.90
12841;DHT22;6487;48.626;12.486;2024-03-08T01:00:19;2.40;99.90
12841;DHT22;6487;48.626;12.486;2024-03-08T01:02:49;2.40;99.90
12841;DHT22;6487;48.626;12.486;2024-03-08T01:05:17;2.40;99.90
12841;DHT22;6487;48.626;12.486;2024-03-08T01:07:46;2.40;99.90
12841;DHT22;6487;48.626;12.486;2024-03-08T01:10:14;2.40;99.90
12841;DHT22;6487;48.626;12.486;2024-03-08T01:12:43;2.40;99.90
12841;DHT22;6487;48.626;12.486;2024-03-08T01:15:12;2.50;99.90
12841;DHT22;6487;48.626;12.486;2024-03-08T01:17:42;2.50;99.90
12841;DHT22;6487;48.626;12.486;2024-03-08T01:20:11;2.40;99.90
12841;DHT22;6487;48.626;12.486;2024-03-08T01:22:40;2.40;99.90
12841;DHT22;6487;48.626;12.486;2024-03-08T01:25:09;2.30;99.90
12841;DHT22;6487;48.626;12.486;2024-03-08T01:27:37;2.30;99.90
12841;DHT22;6487;48.626;12.486;2024-03-08T01:30:06;2.30;99.90
12841;DHT22;6487;48.626;12.486;2024-03-08T01:32:37;2.20;99.90
12841;DHT22;6487;48.626;12.486;2024-03-08T01:35:08;2.20;99.90
12841;DHT22;6487;48.626;12.486;2024-03-08T01:37:37;2.10;99.90
12841;DHT22;6487;48.626;12.486;2024-03-08T01:40:07;2.10;99.90
12841;DHT22;6487;48.626;12.486;2024-03-08T01:42:36;2.10;99.90
12841;DHT22;6487;48.626;12.486;2024-03-08T01:45:06;2.10;99.90
12841;DHT22;6487;48.626;12.486;2024-03-08T01:47:35;2.10;99.90
12841;DHT22;6487;48.626;12.486;2024-03-08T01:50:08;2.10;99.90
12841;DHT22;6487;48.626;12.486;2024-03-08T01:52:37;2.10;99.90
12841;DHT22;6487;48.626;12.486;2024-03-08T01:55:06;2.10;99.90
12841;DHT22;6487;48.626;12.486;2024-03-08T01:57:35;2.00;99.90
12841;DHT22;6487;48.626;12.486;2024-03-08T02:00:06;2.10;99.90
12841;DHT22;6487;48.626;12.486;2024-03-08T02:02:37;2.10;99.90
12841;DHT22;6487;48.626;12.486;2024-03-08T02:05:08;2.00;99.90
12841;DHT22;6487;48.626;12.486;2024-03-08T02:07:37;1.90;99.90
12841;DHT22;6487;48.626;12.486;2024-03-08T02:10:07;1.90;99.90
12841;DHT22;6487;48.626;12.486;2024-03-08T02:12:36;1.80;99.90
12841;DHT22;6487;48.626;12.486;2024-03-08T02:15:08;1.80;99.90
12841;DHT22;6487;48.626;12.486;2024-03-08T02:17:37;1.80;99.90
12841;DHT22;6487;48.626;12.486;2024-03-08T02:20:09;1.70;99.90
12841;DHT22;6487;48.626;12.486;2024-03-08T02:22:42;1.70;99.90
12841;DHT22;6487;48.626;12.486;2024-03-08T02:25:11;1.70;99.90
12841;DHT22;6487;48.626;12.486;2024-03-08T02:27:43;1.70;99.90
12841;DHT22;6487;48.626;12.486;2024-03-08T02:30:12;1.70;99.90
12841;DHT22;6487;48.626;12.486;2024-03-08T02:32:41;1.80;99.90
12841;DHT22;6487;48.626;12.486;2024-03-08T02:35:09;1.70;99.90
12841;DHT22;6487;48.626;12.486;2024-03-08T02:37:37;1.70;99.90
12841;DHT22;6487;48.626;12.486;2024-03-08T02:40:09;1.70;99.90
12841;DHT22;6487;48.626;12.486;2024-03-08T02:42:39;1.70;99.90
12841;DHT22;6487;48.626;12.486;2024-03-08T02:45:08;1.70;99.90
12841;DHT22;6487;48.626;12.486;2024-03-08T02:47:37;1.60;99.90
12841;DHT22;6487;48.626;12.486;2024-03-08T02:50:07;1.60;99.90
12841;DHT22;6487;48.626;12.486;2024-03-08T02:52:35;1.60;99.90
12841;DHT22;6487;48.626;12.486;2024-03-08T02:55:05;1.50;99.90
12841;DHT22;6487;48.626;12.486;2024-03-08T02:57:39;1.50;99.90
12841;DHT22;6487;48.626;12.486;2024-03-08T03:00:09;1.30;99.90
12841;DHT22;6487;48.626;12.486;2024-03-08T03:02:37;1.40;99.90
12841;DHT22;6487;48.626;12.486;2024-03-08T03:05:07;1.40;99.90
12841;DHT22;6487;48.626;12.486;2024-03-08T03:07:36;1.50;99.90
12841;DHT22;6487;48.626;12.486;2024-03-08T03:10:08;1.40;99.90
12841;DHT22;6487;48.626;12.486;2024-03-08T03:12:39;1.40;99.90
12841;DHT22;6487;48.626;12.486;2024-03-08T03:15:08;1.50;99.90
12841;DHT22;6487;48.626;12.486;2024-03-08T03:17:36;1.50;99.90
12841;DHT22;6487;48.626;12.486;2024-03-08T03:20:06;1.50;99.90
12841;DHT22;6487;48.626;12.486;2024-03-08T03:22:41;1.50;99.90
12841;DHT22;6487;48.626;12.486;2024-03-08T03:25:15;1.50;99.90
12841;DHT22;6487;48.626;12.486;2024-03-08T03:27:51;1.50;99.90
12841;DHT22;6487;48.626;12.486;2024-03-08T03:30:23;1.50;99.90
12841;DHT22;6487;48.626;12.486;2024-03-08T03:32:53;1.60;99.90
12841;DHT22;6487;48.626;12.486;2024-03-08T03:35:23;1.60;99.90
12841;DHT22;6487;48.626;12.486;2024-03-08T03:37:52;1.60;99.90
12841;DHT22;6487;48.626;12.486;2024-03-08T03:40:34;1.60;99.90
12841;DHT22;6487;48.626;12.486;2024-03-08T03:43:04;1.50;99.90
12841;DHT22;6487;48.626;12.486;2024-03-08T03:45:32;1.50;99.90
12841;DHT22;6487;48.626;12.486;2024-03-08T03:48:04;1.50;99.90
12841;DHT22;6487;48.626;12.486;2024-03-08T03:50:37;1.40;99.90
12841;DHT22;6487;48.626;12.486;2024-03-08T03:53:07;1.50;99.90
12841;DHT22;6487;48.626;12.486;2024-03-08T03:55:38;1.50;99.90
12841;DHT22;6487;48.626;12.486;2024-03-08T03:58:08;1.40;99.90
12841;DHT22;6487;48.626;12.486;2024-03-08T04:00:38;1.40;99.90
12841;DHT22;6487;48.626;12.486;2024-03-08T04:03:07;1.50;99.90
12841;DHT22;6487;48.626;12.486;2024-03-08T04:05:39;1.60;99.90
12841;DHT22;6487;48.626;12.486;2024-03-08T04:08:07;1.70;99.90
12841;DHT22;6487;48.626;12.486;2024-03-08T04:10:37;1.70;99.90
12841;DHT22;6487;48.626;12.486;2024-03-08T04:13:06;1.70;99.90
12841;DHT22;6487;48.626;12.486;2024-03-08T04:15:34;1.60;99.90
12841;DHT22;6487;48.626;12.486;2024-03-08T04:18:03;1.80;99.90
12841;DHT22;6487;48.626;12.486;2024-03-08T04:20:32;1.70;99.90
12841;DHT22;6487;48.626;12.486;2024-03-08T04:23:00;2.00;99.90
12841;DHT22;6487;48.626;12.486;2024-03-08T04:25:29;1.80;99.90
12841;DHT22;6487;48.626;12.486;2024-03-08T04:27:59;1.80;99.90
12841;DHT22;6487;48.626;12.486;2024-03-08T04:30:27;1.80;99.90
12841;DHT22;6487;48.626;12.486;2024-03-08T04:32:56;1.90;99.90
12841;DHT22;6487;48.626;12.486;2024-03-08T04:35:25;1.80;99.90
12841;DHT22;6487;48.626;12.486;2024-03-08T04:37:54;1.90;99.90
12841;DHT22;6487;48.626;12.486;2024-03-08T04:40:24;1.90;99.90
12841;DHT22;6487;48.626;12.486;2024-03-08T04:42:53;2.00;99.90
12841;DHT22;6487;48.626;12.486;2024-03-08T04:45:23;2.10;99.90
12841;DHT22;6487;48.626;12.486;2024-03-08T04:47:52;2.00;99.90
12841;DHT22;6487;48.626;12.486;2024-03-08T04:50:21;2.10;99.90
12841;DHT22;6487;48.626;12.486;2024-03-08T04:52:52;2.10;99.90
12841;DHT22;6487;48.626;12.486;2024-03-08T04:55:21;2.10;99.90
12841;DHT22;6487;48.626;12.486;2024-03-08T04:57:52;2.10;99.90
12841;DHT22;6487;48.626;12.486;2024-03-08T05:00:20;2.10;99.90
12841;DHT22;6487;48.626;12.486;2024-03-08T05:02:51;2.10;99.90
12841;DHT22;6487;48.626;12.486;2024-03-08T05:05:20;2.10;99.90
12841;DHT22;6487;48.626;12.486;2024-03-08T05:07:49;2.10;99.90
12841;DHT22;6487;48.626;12.486;2024-03-08T05:10:18;2.00;99.90
12841;DHT22;6487;48.626;12.486;2024-03-08T05:12:46;2.20;99.90
12841;DHT22;6487;48.626;12.486;2024-03-08T05:15:15;2.00;99.90
12841;DHT22;6487;48.626;12.486;2024-03-08T05:17:45;2.00;99.90
12841;DHT22;6487;48.626;12.486;2024-03-08T05:20:14;2.00;99.90
12841;DHT22;6487;48.626;12.486;2024-03-08T05:22:44;2.00;99.90
12841;DHT22;6487;48.626;12.486;2024-03-08T05:25:16;2.00;99.90
12841;DHT22;6487;48.626;12.486;2024-03-08T05:27:45;1.90;99.90
12841;DHT22;6487;48.626;12.486;2024-03-08T05:30:14;1.90;99.90
12841;DHT22;6487;48.626;12.486;2024-03-08T05:32:44;1.80;99.90
12841;DHT22;6487;48.626;12.486;2024-03-08T05:35:13;1.90;99.90
12841;DHT22;6487;48.626;12.486;2024-03-08T05:37:43;1.80;99.90
12841;DHT22;6487;48.626;12.486;2024-03-08T05:40:11;1.70;99.90
12841;DHT22;6487;48.626;12.486;2024-03-08T05:42:44;1.60;99.90
12841;DHT22;6487;48.626;12.486;2024-03-08T05:45:13;1.60;99.90
12841;DHT22;6487;48.626;12.486;2024-03-08T05:47:42;1.60;99.90
12841;DHT22;6487;48.626;12.486;2024-03-08T05:50:14;1.60;99.90
12841;DHT22;6487;48.626;12.486;2024-03-08T05:52:43;1.60;99.90
12841;DHT22;6487;48.626;12.486;2024-03-08T05:55:12;1.60;99.90
12841;DHT22;6487;48.626;12.486;2024-03-08T05:57:41;1.60;99.90
12841;DHT22;6487;48.626;12.486;2024-03-08T06:00:10;1.60;99.90
12841;DHT22;6487;48.626;12.486;2024-03-08T06:02:40;1.50;99.90
12841;DHT22;6487;48.626;12.486;2024-03-08T06:05:09;1.50;99.90
12841;DHT22;6487;48.626;12.486;2024-03-08T06:07:39;1.50;99.90
12841;DHT22;6487;48.626;12.486;2024-03-08T06:10:09;1.50;99.90
12841;DHT22;6487;48.626;12.486;2024-03-08T06:12:40;1.60;99.90
12841;DHT22;6487;48.626;12.486;2024-03-08T06:15:09;1.50;99.90
12841;DHT22;6487;48.626;12.486;2024-03-08T06:17:42;1.50;99.90
12841;DHT22;6487;48.626;12.486;2024-03-08T06:20:11;1.50;99.90
12841;DHT22;6487;48.626;12.486;2024-03-08T06:22:42;1.60;99.90
12841;DHT22;6487;48.626;12.486;2024-03-08T06:25:12;1.60;99.90
12841;DHT22;6487;48.626;12.486;2024-03-08T06:27:41;1.70;99.90
12841;DHT22;6487;48.626;12.486;2024-03-08T06:30:11;1.60;99.90
12841;DHT22;6487;48.626;12.486;2024-03-08T06:32:40;1.60;99.90
12841;DHT22;6487;48.626;12.486;2024-03-08T06:35:10;1.70;99.90
12841;DHT22;6487;48.626;12.486;2024-03-08T06:37:39;1.80;99.90
12841;DHT22;6487;48.626;12.486;2024-03-08T06:40:11;1.80;99.90
12841;DHT22;6487;48.626;12.486;2024-03-08T06:42:46;1.80;99.90
12841;DHT22;6487;48.626;12.486;2024-03-08T06:45:14;2.00;99.90
12841;DHT22;6487;48.626;12.486;2024-03-08T06:47:47;2.00;99.90
12841;DHT22;6487;48.626;12.486;2024-03-08T06:50:16;2.10;99.90
12841;DHT22;6487;48.626;12.486;2024-03-08T06:52:45;2.00;99.90
12841;DHT22;6487;48.626;12.486;2024-03-08T06:55:19;2.20;99.90
12841;DHT22;6487;48.626;12.486;2024-03-08T06:57:53;2.30;99.90
12841;DHT22;6487;48.626;12.486;2024-03-08T07:00:22;2.30;99.90
12841;DHT22;6487;48.626;12.486;2024-03-08T07:02:53;2.40;99.90
12841;DHT22;6487;48.626;12.486;2024-03-08T07:05:22;2.40;99.90
12841;DHT22;6487;48.626;12.486;2024-03-08T07:07:54;2.40;99.90
12841;DHT22;6487;48.626;12.486;2024-03-08T07:10:24;2.40;99.90
12841;DHT22;6487;48.626;12.486;2024-03-08T07:12:53;2.50;99.90
12841;DHT22;6487;48.626;12.486;2024-03-08T07:15:21;2.60;99.90
12841;DHT22;6487;48.626;12.486;2024-03-08T07:17:50;2.70;99.90
12841;DHT22;6487;48.626;12.486;2024-03-08T07:20:20;2.60;99.90
12841;DHT22;6487;48.626;12.486;2024-03-08T07:22:51;2.80;99.90
12841;DHT22;6487;48.626;12.486;2024-03-08T07:25:20;3.00;99.90
12841;DHT22;6487;48.626;12.486;2024-03-08T07:27:51;3.00;99.90
12841;DHT22;6487;48.626;12.486;2024-03-08T07:30:24;3.10;99.90
12841;DHT22;6487;48.626;12.486;2024-03-08T07:33:11;3.10;99.90
12841;DHT22;6487;48.626;12.486;2024-03-08T07:35:40;3.30;99.90
12841;DHT22;6487;48.626;12.486;2024-03-08T07:38:11;3.40;99.90
12841;DHT22;6487;48.626;12.486;2024-03-08T07:40:40;3.50;99.90
12841;DHT22;6487;48.626;12.486;2024-03-08T07:43:13;3.30;99.90
12841;DHT22;6487;48.626;12.486;2024-03-08T07:45:48;3.60;99.90
12841;DHT22;6487;48.626;12.486;2024-03-08T07:48:18;3.80;99.90
12841;DHT22;6487;48.626;12.486;2024-03-08T07:50:46;4.10;99.90
12841;DHT22;6487;48.626;12.486;2024-03-08T07:53:16;3.90;99.90
12841;DHT22;6487;48.626;12.486;2024-03-08T07:55:45;4.10;99.90
12841;DHT22;6487;48.626;12.486;2024-03-08T07:58:15;4.30;99.90
12841;DHT22;6487;48.626;12.486;2024-03-08T08:00:44;4.30;99.90
12841;DHT22;6487;48.626;12.486;2024-03-08T08:03:13;4.50;99.90
12841;DHT22;6487;48.626;12.486;2024-03-08T08:05:42;4.30;99.90
12841;DHT22;6487;48.626;12.486;2024-03-08T08:08:12;4.40;99.90
12841;DHT22;6487;48.626;12.486;2024-03-08T08:10:42;4.40;99.90
12841;DHT22;6487;48.626;12.486;2024-03-08T08:13:10;4.60;99.90
12841;DHT22;6487;48.626;12.486;2024-03-08T08:15:41;4.90;99.90
12841;DHT22;6487;48.626;12.486;2024-03-08T08:18:12;4.60;99.90
12841;DHT22;6487;48.626;12.486;2024-03-08T08:20:41;4.70;99.90
12841;DHT22;6487;48.626;12.486;2024-03-08T08:23:12;4.80;99.90
12841;DHT22;6487;48.626;12.486;2024-03-08T08:25:41;5.00;99.90
12841;DHT22;6487;48.626;12.486;2024-03-08T08:28:09;5.10;99.90
12841;DHT22;6487;48.626;12.486;2024-03-08T08:30:41;5.10;99.90
12841;DHT22;6487;48.626;12.486;2024-03-08T08:33:10;5.20;99.90
12841;DHT22;6487;48.626;12.486;2024-03-08T08:35:39;5.40;99.90
12841;DHT22;6487;48.626;12.486;2024-03-08T08:38:08;5.60;99.90
12841;DHT22;6487;48.626;12.486;2024-03-08T08:40:36;5.40;99.90
12841;DHT22;6487;48.626;12.486;2024-03-08T08:43:05;5.60;99.90
12841;DHT22;6487;48.626;12.486;2024-03-08T08:45:34;5.60;99.90
12841;DHT22;6487;48.626;12.486;2024-03-08T08:48:05;5.90;99.90
12841;DHT22;6487;48.626;12.486;2024-03-08T08:50:34;6.10;99.90
12841;DHT22;6487;48.626;12.486;2024-03-08T08:53:03;6.40;99.90
12841;DHT22;6487;48.626;12.486;2024-03-08T08:55:33;6.50;99.90
12841;DHT22;6487;48.626;12.486;2024-03-08T08:58:03;6.60;99.90
12841;DHT22;6487;48.626;12.486;2024-03-08T09:00:32;6.70;99.90
12841;DHT22;6487;48.626;12.486;2024-03-08T09:03:03;7.00;99.90
12841;DHT22;6487;48.626;12.486;2024-03-08T09:05:33;7.00;99.90
12841;DHT22;6487;48.626;12.486;2024-03-08T09:08:06;6.70;99.90
12841;DHT22;6487;48.626;12.486;2024-03-08T09:10:35;6.90;99.90
12841;DHT22;6487;48.626;12.486;2024-03-08T09:13:06;7.00;99.90
12841;DHT22;6487;48.626;12.486;2024-03-08T09:15:44;7.10;99.90
12841;DHT22;6487;48.626;12.486;2024-03-08T09:18:14;7.00;99.90
12841;DHT22;6487;48.626;12.486;2024-03-08T09:20:42;6.90;99.90
12841;DHT22;6487;48.626;12.486;2024-03-08T09:23:11;7.20;99.90
12841;DHT22;6487;48.626;12.486;2024-03-08T09:25:40;7.40;99.90
12841;DHT22;6487;48.626;12.486;2024-03-08T09:28:12;7.30;99.90
12841;DHT22;6487;48.626;12.486;2024-03-08T09:30:40;7.40;99.90
12841;DHT22;6487;48.626;12.486;2024-03-08T09:33:21;7.60;99.90
12841;DHT22;6487;48.626;12.486;2024-03-08T09:35:49;7.40;99.90
12841;DHT22;6487;48.626;12.486;2024-03-08T09:38:18;7.60;99.90
12841;DHT22;6487;48.626;12.486;2024-03-08T09:40:47;7.90;99.90
12841;DHT22;6487;48.626;12.486;2024-03-08T09:43:16;7.90;99.90
12841;DHT22;6487;48.626;12.486;2024-03-08T09:45:49;7.70;99.90
12841;DHT22;6487;48.626;12.486;2024-03-08T09:48:20;8.00;99.90
12841;DHT22;6487;48.626;12.486;2024-03-08T09:50:48;8.30;99.90
12841;DHT22;6487;48.626;12.486;2024-03-08T09:53:17;8.20;99.90
12841;DHT22;6487;48.626;12.486;2024-03-08T09:55:49;8.30;99.90
12841;DHT22;6487;48.626;12.486;2024-03-08T09:58:19;8.50;99.80
12841;DHT22;6487;48.626;12.486;2024-03-08T10:01:05;8.70;99.90
12841;DHT22;6487;48.626;12.486;2024-03-08T10:03:38;8.90;99.30
12841;DHT22;6487;48.626;12.486;2024-03-08T10:06:08;8.90;99.30
12841;DHT22;6487;48.626;12.486;2024-03-08T10:08:37;9.00;99.00
12841;DHT22;6487;48.626;12.486;2024-03-08T10:11:09;8.80;98.10
12841;DHT22;6487;48.626;12.486;2024-03-08T10:13:39;8.90;99.00
12841;DHT22;6487;48.626;12.486;2024-03-08T10:16:08;9.10;98.20
12841;DHT22;6487;48.626;12.486;2024-03-08T10:18:38;9.30;99.00
12841;DHT22;6487;48.626;12.486;2024-03-08T10:21:08;9.30;98.30
12841;DHT22;6487;48.626;12.486;2024-03-08T10:23:38;9.40;98.40
12841;DHT22;6487;48.626;12.486;2024-03-08T10:26:11;9.70;98.60
12841;DHT22;6487;48.626;12.486;2024-03-08T10:28:42;9.80;98.00
12841;DHT22;6487;48.626;12.486;2024-03-08T10:31:11;9.70;97.30
12841;DHT22;6487;48.626;12.486;2024-03-08T10:33:46;9.60;98.10
12841;DHT22;6487;48.626;12.486;2024-03-08T10:36:16;9.30;97.30
12841;DHT22;6487;48.626;12.486;2024-03-08T10:38:46;9.30;97.70
12841;DHT22;6487;48.626;12.486;2024-03-08T10:41:16;9.40;97.50
12841;DHT22;6487;48.626;12.486;2024-03-08T10:43:58;9.90;97.70
12841;DHT22;6487;48.626;12.486;2024-03-08T10:46:57;10.10;97.80
12841;DHT22;6487;48.626;12.486;2024-03-08T10:49:38;10.10;96.70
12841;DHT22;6487;48.626;12.486;2024-03-08T10:52:17;9.80;96.10
12841;DHT22;6487;48.626;12.486;2024-03-08T10:54:48;9.80;96.00
12841;DHT22;6487;48.626;12.486;2024-03-08T10:57:18;9.90;96.50
12841;DHT22;6487;48.626;12.486;2024-03-08T10:59:48;10.20;96.70
12841;DHT22;6487;48.626;12.486;2024-03-08T11:02:19;10.40;96.80
12841;DHT22;6487;48.626;12.486;2024-03-08T11:04:52;10.70;96.80
12841;DHT22;6487;48.626;12.486;2024-03-08T11:07:25;10.70;95.90
12841;DHT22;6487;48.626;12.486;2024-03-08T11:09:56;10.70;96.00
12841;DHT22;6487;48.626;12.486;2024-03-08T11:12:25;10.90;96.10
12841;DHT22;6487;48.626;12.486;2024-03-08T11:14:59;11.00;96.10
12841;DHT22;6487;48.626;12.486;2024-03-08T11:17:44;10.50;94.60
12841;DHT22;6487;48.626;12.486;2024-03-08T11:20:16;10.60;95.80
12841;DHT22;6487;48.626;12.486;2024-03-08T11:22:49;11.00;95.80
12841;DHT22;6487;48.626;12.486;2024-03-08T11:25:36;11.10;95.70
12841;DHT22;6487;48.626;12.486;2024-03-08T11:28:12;11.10;96.00
12841;DHT22;6487;48.626;12.486;2024-03-08T11:30:47;11.40;95.20
12841;DHT22;6487;48.626;12.486;2024-03-08T11:33:38;11.30;95.10
12841;DHT22;6487;48.626;12.486;2024-03-08T11:36:12;11.40;94.90
12841;DHT22;6487;48.626;12.486;2024-03-08T11:38:44;11.50;94.10
12841;DHT22;6487;48.626;12.486;2024-03-08T11:41:17;11.40;93.30
12841;DHT22;6487;48.626;12.486;2024-03-08T11:43:46;11.30;93.00
12841;DHT22;6487;48.626;12.486;2024-03-08T11:46:16;11.10;92.60
12841;DHT22;6487;48.626;12.486;2024-03-08T11:48:48;11.10;92.10
12841;DHT22;6487;48.626;12.486;2024-03-08T11:51:18;11.10;92.10
12841;DHT22;6487;48.626;12.486;2024-03-08T11:53:49;10.90;93.00
12841;DHT22;6487;48.626;12.486;2024-03-08T11:56:18;11.10;92.20
12841;DHT22;6487;48.626;12.486;2024-03-08T11:58:53;11.00;91.90
12841;DHT22;6487;48.626;12.486;2024-03-08T12:01:25;11.00;91.90
12841;DHT22;6487;48.626;12.486;2024-03-08T12:03:55;11.20;91.60
12841;DHT22;6487;48.626;12.486;2024-03-08T12:06:36;11.10;91.50
12841;DHT22;6487;48.626;12.486;2024-03-08T12:09:10;11.10;92.20
12841;DHT22;6487;48.626;12.486;2024-03-08T12:11:40;11.00;91.30
12841;DHT22;6487;48.626;12.486;2024-03-08T12:14:10;11.30;92.10
12841;DHT22;6487;48.626;12.486;2024-03-08T12:16:38;11.40;91.30
12841;DHT22;6487;48.626;12.486;2024-03-08T12:19:07;11.50;91.50
12841;DHT22;6487;48.626;12.486;2024-03-08T12:21:37;11.50;91.40
12841;DHT22;6487;48.626;12.486;2024-03-08T12:24:16;11.30;90.80
12841;DHT22;6487;48.626;12.486;2024-03-08T12:26:47;11.40;91.10
12841;DHT22;6487;48.626;12.486;2024-03-08T12:29:17;11.50;90.60
12841;DHT22;6487;48.626;12.486;2024-03-08T12:31:51;11.30;90.30
12841;DHT22;6487;48.626;12.486;2024-03-08T12:34:21;11.30;89.70
12841;DHT22;6487;48.626;12.486;2024-03-08T12:36:52;11.60;89.90
12841;DHT22;6487;48.626;12.486;2024-03-08T12:39:22;11.60;88.60
12841;DHT22;6487;48.626;12.486;2024-03-08T12:41:54;11.70;88.10
12841;DHT22;6487;48.626;12.486;2024-03-08T12:44:24;11.70;86.70
12841;DHT22;6487;48.626;12.486;2024-03-08T12:46:53;11.80;87.90
12841;DHT22;6487;48.626;12.486;2024-03-08T12:49:21;11.90;87.20
12841;DHT22;6487;48.626;12.486;2024-03-08T12:51:52;11.90;85.70
12841;DHT22;6487;48.626;12.486;2024-03-08T12:54:20;12.00;86.60
12841;DHT22;6487;48.626;12.486;2024-03-08T12:56:52;12.00;84.30
12841;DHT22;6487;48.626;12.486;2024-03-08T12:59:22;12.20;86.70
12841;DHT22;6487;48.626;12.486;2024-03-08T13:01:51;12.20;86.90
12841;DHT22;6487;48.626;12.486;2024-03-08T13:04:21;12.30;87.00
12841;DHT22;6487;48.626;12.486;2024-03-08T13:06:51;12.40;87.00
12841;DHT22;6487;48.626;12.486;2024-03-08T13:09:21;12.10;85.80
12841;DHT22;6487;48.626;12.486;2024-03-08T13:11:50;12.20;86.10
12841;DHT22;6487;48.626;12.486;2024-03-08T13:14:21;12.30;86.00
12841;DHT22;6487;48.626;12.486;2024-03-08T13:16:49;12.20;85.80
12841;DHT22;6487;48.626;12.486;2024-03-08T13:19:18;12.20;86.60
12841;DHT22;6487;48.626;12.486;2024-03-08T13:21:49;12.20;85.20
12841;DHT22;6487;48.626;12.486;2024-03-08T13:24:19;12.40;85.60
12841;DHT22;6487;48.626;12.486;2024-03-08T13:26:48;12.40;82.40
12841;DHT22;6487;48.626;12.486;2024-03-08T13:29:17;12.50;84.70
12841;DHT22;6487;48.626;12.486;2024-03-08T13:31:48;12.40;83.90
12841;DHT22;6487;48.626;12.486;2024-03-08T13:34:19;12.40;82.60
12841;DHT22;6487;48.626;12.486;2024-03-08T13:36:55;12.50;84.70
12841;DHT22;6487;48.626;12.486;2024-03-08T13:39:29;12.40;84.80
12841;DHT22;6487;48.626;12.486;2024-03-08T13:42:04;12.40;83.60
12841;DHT22;6487;48.626;12.486;2024-03-08T13:44:36;12.70;85.90
12841;DHT22;6487;48.626;12.486;2024-03-08T13:47:05;12.70;85.10
12841;DHT22;6487;48.626;12.486;2024-03-08T13:49:34;12.30;84.80
12841;DHT22;6487;48.626;12.486;2024-03-08T13:52:03;12.50;83.80
12841;DHT22;6487;48.626;12.486;2024-03-08T13:54:34;12.40;84.60
12841;DHT22;6487;48.626;12.486;2024-03-08T13:57:04;12.70;85.30
12841;DHT22;6487;48.626;12.486;2024-03-08T13:59:34;12.50;84.90
12841;DHT22;6487;48.626;12.486;2024-03-08T14:02:04;12.50;84.90
12841;DHT22;6487;48.626;12.486;2024-03-08T14:04:32;12.60;84.70
12841;DHT22;6487;48.626;12.486;2024-03-08T14:07:01;12.60;84.50
12841;DHT22;6487;48.626;12.486;2024-03-08T14:09:31;12.70;85.60
12841;DHT22;6487;48.626;12.486;2024-03-08T14:12:06;12.80;84.40
12841;DHT22;6487;48.626;12.486;2024-03-08T14:14:35;12.50;80.90
12841;DHT22;6487;48.626;12.486;2024-03-08T14:17:04;12.60;81.30
12841;DHT22;6487;48.626;12.486;2024-03-08T14:19:34;12.60;83.10
12841;DHT22;6487;48.626;12.486;2024-03-08T14:22:03;12.70;83.30
12841;DHT22;6487;48.626;12.486;2024-03-08T14:24:32;12.70;83.80
12841;DHT22;6487;48.626;12.486;2024-03-08T14:27:04;12.60;82.70
12841;DHT22;6487;48.626;12.486;2024-03-08T14:29:35;12.30;80.30
12841;DHT22;6487;48.626;12.486;2024-03-08T14:32:05;12.20;80.90
12841;DHT22;6487;48.626;12.486;2024-03-08T14:34:35;11.90;82.00
12841;DHT22;6487;48.626;12.486;2024-03-08T14:37:03;12.00;82.80
12841;DHT22;6487;48.626;12.486;2024-03-08T14:39:39;12.00;83.30
12841;DHT22;6487;48.626;12.486;2024-03-08T14:42:12;11.90;83.30
12841;DHT22;6487;48.626;12.486;2024-03-08T14:44:41;11.90;84.10
12841;DHT22;6487;48.626;12.486;2024-03-08T14:47:15;11.70;84.10
12841;DHT22;6487;48.626;12.486;2024-03-08T14:49:43;11.50;83.40
12841;DHT22;6487;48.626;12.486;2024-03-08T14:52:12;11.40;83.40
12841;DHT22;6487;48.626;12.486;2024-03-08T14:55:07;11.40;83.60
12841;DHT22;6487;48.626;12.486;2024-03-08T14:57:40;11.40;83.60
12841;DHT22;6487;48.626;12.486;2024-03-08T15:00:13;11.30;82.30
12841;DHT22;6487;48.626;12.486;2024-03-08T15:02:45;11.20;82.50
12841;DHT22;6487;48.626;12.486;2024-03-08T15:05:15;11.10;83.50
12841;DHT22;6487;48.626;12.486;2024-03-08T15:07:48;11.00;83.50
12841;DHT22;6487;48.626;12.486;2024-03-08T15:10:18;11.00;83.40
12841;DHT22;6487;48.626;12.486;2024-03-08T15:12:49;11.10;83.70
12841;DHT22;6487;48.626;12.486;2024-03-08T15:15:22;10.90;84.00
12841;DHT22;6487;48.626;12.486;2024-03-08T15:17:52;11.00;84.90
12841;DHT22;6487;48.626;12.486;2024-03-08T15:20:24;11.00;84.20
12841;DHT22;6487;48.626;12.486;2024-03-08T15:22:57;11.00;84.60
12841;DHT22;6487;48.626;12.486;2024-03-08T15:25:28;11.10;84.80
12841;DHT22;6487;48.626;12.486;2024-03-08T15:27:57;11.00;85.40
12841;DHT22;6487;48.626;12.486;2024-03-08T15:30:26;10.90;85.20
12841;DHT22;6487;48.626;12.486;2024-03-08T15:32:56;10.60;85.20
12841;DHT22;6487;48.626;12.486;2024-03-08T15:35:26;10.60;85.00
12841;DHT22;6487;48.626;12.486;2024-03-08T15:37:55;10.50;84.70
12841;DHT22;6487;48.626;12.486;2024-03-08T15:40:25;10.50;84.60
12841;DHT22;6487;48.626;12.486;2024-03-08T15:42:57;10.50;85.60
12841;DHT22;6487;48.626;12.486;2024-03-08T15:45:27;10.50;85.80
12841;DHT22;6487;48.626;12.486;2024-03-08T15:47:56;10.40;85.90
12841;DHT22;6487;48.626;12.486;2024-03-08T15:50:25;10.40;86.40
12841;DHT22;6487;48.626;12.486;2024-03-08T15:52:54;10.40;88.40
12841;DHT22;6487;48.626;12.486;2024-03-08T15:55:22;10.30;88.90
12841;DHT22;6487;48.626;12.486;2024-03-08T15:57:52;10.00;88.80
12841;DHT22;6487;48.626;12.486;2024-03-08T16:00:23;10.20;89.70